createdAt,value
2022-10-11T00:03:53.450Z,99.90
2022-10-11T00:09:16.649Z,99.90
2022-10-11T00:36:35.778Z,99.90
2022-10-11T00:57:49.074Z,99.90
2022-10-11T01:04:13.774Z,99.90
2022-10-11T01:26:10.372Z,99.90
2022-10-11T01:46:55.131Z,99.90
2022-10-11T01:53:45.025Z,99.90
2022-10-11T02:01:05.661Z,99.90
2022-10-11T02:07:03.850Z,99.90
2022-10-11T02:12:40.988Z,99.90
2022-10-11T02:34:14.499Z,99.90
2022-10-11T02:39:59.940Z,99.90
2022-10-11T02:45:49.571Z,99.90
2022-10-11T02:51:37.112Z,99.90
2022-10-11T03:12:43.199Z,99.90
2022-10-11T03:18:13.509Z,99.90
2022-10-11T03:23:47.914Z,99.90
2022-10-11T03:29:18.809Z,99.90
2022-10-11T03:50:09.576Z,99.90
2022-10-11T03:55:47.088Z,99.90
2022-10-11T04:16:32.828Z,99.90
2022-10-11T04:37:18.439Z,99.90
2022-10-11T04:42:54.390Z,99.90
2022-10-11T05:03:51.411Z,99.90
2022-10-11T05:24:44.152Z,99.90
2022-10-11T05:30:14.978Z,99.90
2022-10-11T05:35:55.703Z,99.90
2022-10-11T05:41:24.886Z,99.90
2022-10-11T06:25:16.629Z,99.90
2022-10-11T06:31:35.302Z,99.90
2022-10-11T06:53:30.179Z,99.90
2022-10-11T07:21:09.027Z,99.90
2022-10-11T07:42:39.544Z,99.90
2022-10-11T08:03:39.649Z,99.90
2022-10-11T08:24:22.013Z,99.90
2022-10-11T08:29:52.883Z,99.90
2022-10-11T08:35:24.076Z,99.90
2022-10-11T08:41:01.063Z,99.90
2022-10-11T08:46:32.795Z,99.90
2022-10-11T08:52:15.033Z,99.90
2022-10-11T08:57:22.846Z,99.90
2022-10-11T09:03:07.580Z,99.90
2022-10-11T09:08:50.318Z,99.90
2022-10-11T09:14:04.533Z,99.90
2022-10-11T09:19:25.545Z,99.90
2022-10-11T09:24:52.732Z,99.90
2022-10-11T09:30:10.868Z,99.90
2022-10-11T09:35:18.497Z,99.90
2022-10-11T09:40:39.552Z,99.90
2022-10-11T09:45:49.280Z,99.90
2022-10-11T09:50:54.077Z,99.90
2022-10-11T09:56:09.239Z,99.90
2022-10-11T10:01:23.871Z,99.90
2022-10-11T10:19:17.442Z,99.90
2022-10-11T10:24:41.792Z,99.90
2022-10-11T10:30:35.448Z,99.90
2022-10-11T10:35:46.625Z,99.90
2022-10-11T10:41:04.359Z,99.90
2022-10-11T10:53:15.135Z,99.90
2022-10-11T10:58:49.616Z,99.90
2022-10-11T11:10:11.027Z,99.90
2022-10-11T11:15:46.909Z,99.90
2022-10-11T11:21:16.935Z,99.90
2022-10-11T11:26:29.816Z,99.90
2022-10-11T11:31:59.849Z,99.90
2022-10-11T11:43:06.539Z,99.90
2022-10-11T11:48:34.828Z,99.90
2022-10-11T11:54:02.637Z,99.90
2022-10-11T12:00:09.555Z,99.90
2022-10-11T12:05:28.480Z,99.90
2022-10-11T12:10:57.818Z,99.90
2022-10-11T12:27:58.007Z,99.90
2022-10-11T12:33:32.748Z,99.90
2022-10-11T12:45:32.288Z,99.90
2022-10-11T12:51:56.328Z,99.90
2022-10-11T12:57:48.361Z,99.90
2022-10-11T13:02:55.726Z,99.90
2022-10-11T13:13:39.000Z,99.90
2022-10-11T13:18:49.326Z,99.90
2022-10-11T13:23:55.555Z,99.90
2022-10-11T13:29:00.243Z,99.90
2022-10-11T13:34:03.318Z,99.90
2022-10-11T13:39:07.624Z,99.90
2022-10-11T13:44:11.888Z,99.90
2022-10-11T13:49:40.725Z,99.90
2022-10-11T13:54:54.578Z,99.90
2022-10-11T13:59:58.442Z,99.90
2022-10-11T14:05:00.911Z,99.90
2022-10-11T14:10:04.738Z,99.50
2022-10-11T14:15:25.132Z,99.50
2022-10-11T14:20:47.533Z,99.70
2022-10-11T14:25:54.241Z,98.70
2022-10-11T14:30:58.093Z,98.80
2022-10-11T14:36:04.151Z,98.10
2022-10-11T14:41:08.163Z,98.80
2022-10-11T14:46:25.163Z,98.50
2022-10-11T14:56:54.428Z,98.20
2022-10-11T15:02:04.350Z,98.70
2022-10-11T15:07:17.518Z,98.30
2022-10-11T15:12:21.418Z,98.10
2022-10-11T15:17:24.094Z,98.50
2022-10-11T15:22:33.854Z,98.40
2022-10-11T15:27:36.978Z,98.20
2022-10-11T15:32:43.932Z,98.40
2022-10-11T15:37:48.024Z,97.90
2022-10-11T15:48:41.913Z,98.40
2022-10-11T15:54:14.500Z,97.90
2022-10-11T15:59:17.906Z,98.10
2022-10-11T16:04:23.263Z,97.80
2022-10-11T16:16:12.543Z,98.30
2022-10-11T16:21:54.607Z,98.40
2022-10-11T16:27:48.079Z,98.70
2022-10-11T16:50:15.024Z,98.70
2022-10-11T16:55:29.560Z,98.90
2022-10-11T17:00:49.584Z,99.00
2022-10-11T17:06:55.023Z,98.90
2022-10-11T17:12:39.014Z,98.80
2022-10-11T17:18:47.819Z,99.90
2022-10-11T17:36:44.968Z,99.90
2022-10-11T17:48:45.283Z,99.90
2022-10-11T17:59:55.654Z,99.90
2022-10-11T18:17:38.276Z,99.90
2022-10-11T18:22:48.458Z,99.90
2022-10-11T18:28:25.240Z,99.90
2022-10-11T18:34:27.909Z,99.90
2022-10-11T18:44:59.443Z,99.90
2022-10-11T18:50:05.312Z,99.90
2022-10-11T18:55:13.227Z,99.90
2022-10-11T19:00:40.152Z,99.90
2022-10-11T19:05:49.029Z,99.90
2022-10-11T19:10:51.663Z,99.90
2022-10-11T19:16:03.216Z,99.90
2022-10-11T19:27:05.554Z,99.90
2022-10-11T19:32:52.319Z,99.90
2022-10-11T19:38:03.438Z,99.90
2022-10-11T19:43:05.753Z,99.90
2022-10-11T19:48:08.482Z,99.90
2022-10-11T19:53:10.773Z,99.90
2022-10-11T19:58:13.020Z,99.90
2022-10-11T20:03:15.331Z,99.90
2022-10-11T20:08:17.764Z,99.90
2022-10-11T20:13:20.065Z,99.90
2022-10-11T20:18:23.170Z,99.90
2022-10-11T20:23:27.756Z,99.90
2022-10-11T20:28:32.085Z,99.90
2022-10-11T20:33:34.518Z,99.90
2022-10-11T20:38:39.510Z,99.90
2022-10-11T20:43:42.756Z,99.90
2022-10-11T20:48:50.709Z,99.90
2022-10-11T20:53:53.672Z,99.90
2022-10-11T20:58:58.007Z,99.90
2022-10-11T21:04:01.794Z,99.90
2022-10-11T21:09:04.501Z,99.90
2022-10-11T21:14:07.144Z,99.90
2022-10-11T21:19:13.149Z,99.90
2022-10-11T21:24:15.489Z,99.90
2022-10-11T21:29:18.023Z,99.90
2022-10-11T21:34:20.265Z,99.90
2022-10-11T21:39:22.916Z,99.90
2022-10-11T21:44:25.184Z,99.90
2022-10-11T21:49:27.469Z,99.90
2022-10-11T21:54:29.744Z,99.90
2022-10-11T21:59:32.005Z,99.90
2022-10-11T22:04:34.624Z,99.90
2022-10-11T22:09:36.990Z,99.90
2022-10-11T22:14:39.172Z,99.90
2022-10-11T22:19:41.468Z,99.90
2022-10-11T22:24:43.739Z,99.90
2022-10-11T22:29:45.992Z,99.90
2022-10-11T22:34:48.612Z,99.90
2022-10-11T22:39:50.874Z,99.90
2022-10-11T22:44:53.151Z,99.90
2022-10-11T22:49:55.390Z,99.90
2022-10-11T22:54:57.662Z,99.90
2022-10-11T22:59:59.879Z,99.90
2022-10-11T23:05:02.191Z,99.90
2022-10-11T23:10:04.926Z,99.90
2022-10-11T23:15:07.652Z,99.90
2022-10-11T23:20:10.421Z,99.90
2022-10-11T23:25:12.890Z,99.90
2022-10-11T23:30:15.602Z,99.90
2022-10-11T23:35:18.256Z,99.90
2022-10-11T23:40:20.674Z,99.90
2022-10-11T23:45:22.824Z,99.90
2022-10-11T23:50:25.162Z,99.90
2022-10-11T23:55:28.917Z,99.90
